sensor_id;sensor_type;location;lat;lon;timestamp;pressure;altitude;pressure_sealevel;temperature;humidity
42125;BME280;27787;44.594;11.046;2023-03-01T00:00:07;101525.34;;;5.41;76.24
42125;BME280;27787;44.594;11.046;2023-03-01T00:02:55;101518.41;;;5.41;76.82
42125;BME280;27787;44.594;11.046;2023-03-01T00:05:46;101516.66;;;5.42;76.81
42125;BME280;27787;44.594;11.046;2023-03-01T00:08:31;101517.50;;;5.41;76.91
42125;BME280;27787;44.594;11.046;2023-03-01T00:11:21;101508.94;;;5.45;77.07
42125;BME280;27787;44.594;11.046;2023-03-01T00:14:06;101505.56;;;5.47;76.03
42125;BME280;27787;44.594;11.046;2023-03-01T00:16:50;101509.00;;;5.46;75.16
42125;BME280;27787;44.594;11.046;2023-03-01T00:19:34;101510.66;;;5.44;75.02
42125;BME280;27787;44.594;11.046;2023-03-01T00:22:18;101520.06;;;5.39;74.73
42125;BME280;27787;44.594;11.046;2023-03-01T00:25:03;101532.22;;;5.37;74.66
42125;BME280;27787;44.594;11.046;2023-03-01T00:27:47;101520.91;;;5.38;74.61
42125;BME280;27787;44.594;11.046;2023-03-01T00:30:33;101519.78;;;5.33;75.42
42125;BME280;27787;44.594;11.046;2023-03-01T00:33:17;101516.56;;;5.39;74.75
42125;BME280;27787;44.594;11.046;2023-03-01T00:36:02;101505.13;;;5.37;74.87
42125;BME280;27787;44.594;11.046;2023-03-01T00:38:47;101511.94;;;5.33;75.05
42125;BME280;27787;44.594;11.046;2023-03-01T00:41:31;101497.84;;;5.29;75.25
42125;BME280;27787;44.594;11.046;2023-03-01T00:44:15;101501.25;;;5.27;75.55
42125;BME280;27787;44.594;11.046;2023-03-01T00:46:59;101502.03;;;5.24;75.85
42125;BME280;27787;44.594;11.046;2023-03-01T00:49:44;101504.63;;;5.24;75.65
42125;BME280;27787;44.594;11.046;2023-03-01T00:52:28;101500.22;;;5.23;75.48
42125;BME280;27787;44.594;11.046;2023-03-01T00:55:12;101498.50;;;5.24;75.51
42125;BME280;27787;44.594;11.046;2023-03-01T00:57:57;101493.34;;;5.25;75.15
42125;BME280;27787;44.594;11.046;2023-03-01T01:00:42;101474.19;;;5.26;74.10
42125;BME280;27787;44.594;11.046;2023-03-01T01:03:26;101474.94;;;5.24;74.28
42125;BME280;27787;44.594;11.046;2023-03-01T01:06:40;101471.50;;;5.25;74.25
42125;BME280;27787;44.594;11.046;2023-03-01T01:09:22;101471.56;;;5.26;74.79
42125;BME280;27787;44.594;11.046;2023-03-01T01:12:07;101464.53;;;5.25;74.23
42125;BME280;27787;44.594;11.046;2023-03-01T01:14:52;101468.22;;;5.30;74.79
42125;BME280;27787;44.594;11.046;2023-03-01T01:17:36;101464.25;;;5.40;74.14
42125;BME280;27787;44.594;11.046;2023-03-01T01:20:20;101457.41;;;5.44;73.72
42125;BME280;27787;44.594;11.046;2023-03-01T01:23:05;101448.13;;;5.52;73.74
42125;BME280;27787;44.594;11.046;2023-03-01T01:25:49;101449.84;;;5.51;73.25
42125;BME280;27787;44.594;11.046;2023-03-01T01:28:33;101445.97;;;5.42;73.64
42125;BME280;27787;44.594;11.046;2023-03-01T01:31:18;101447.34;;;5.32;74.21
42125;BME280;27787;44.594;11.046;2023-03-01T01:34:04;101442.66;;;5.23;74.51
42125;BME280;27787;44.594;11.046;2023-03-01T01:36:51;101432.25;;;5.25;74.60
42125;BME280;27787;44.594;11.046;2023-03-01T01:39:37;101431.47;;;5.27;73.78
42125;BME280;27787;44.594;11.046;2023-03-01T01:42:21;101426.06;;;5.23;74.22
42125;BME280;27787;44.594;11.046;2023-03-01T01:45:32;101421.50;;;5.19;74.94
42125;BME280;27787;44.594;11.046;2023-03-01T01:48:20;101421.47;;;5.17;74.63
42125;BME280;27787;44.594;11.046;2023-03-01T01:51:09;101418.91;;;5.19;73.76
42125;BME280;27787;44.594;11.046;2023-03-01T01:53:58;101417.16;;;5.19;74.20
42125;BME280;27787;44.594;11.046;2023-03-01T01:56:49;101412.53;;;5.12;74.35
42125;BME280;27787;44.594;11.046;2023-03-01T01:59:38;101408.84;;;5.07;75.06
42125;BME280;27787;44.594;11.046;2023-03-01T02:02:23;101409.59;;;5.04;75.21
42125;BME280;27787;44.594;11.046;2023-03-01T02:06:17;101402.59;;;5.03;74.19
42125;BME280;27787;44.594;11.046;2023-03-01T02:08:40;101394.56;;;4.99;74.87
42125;BME280;27787;44.594;11.046;2023-03-01T02:11:27;101399.75;;;4.97;73.74
42125;BME280;27787;44.594;11.046;2023-03-01T02:14:14;101397.81;;;4.93;73.13
42125;BME280;27787;44.594;11.046;2023-03-01T02:16:59;101389.84;;;4.90;73.12
42125;BME280;27787;44.594;11.046;2023-03-01T02:22:53;101382.78;;;4.88;72.67
42125;BME280;27787;44.594;11.046;2023-03-01T02:28:43;101382.97;;;4.92;73.27
42125;BME280;27787;44.594;11.046;2023-03-01T02:31:28;101381.53;;;5.00;72.92
42125;BME280;27787;44.594;11.046;2023-03-01T02:34:30;101370.13;;;4.98;71.62
42125;BME280;27787;44.594;11.046;2023-03-01T02:37:16;101375.25;;;4.95;71.35
42125;BME280;27787;44.594;11.046;2023-03-01T02:40:08;101369.81;;;4.91;72.01
42125;BME280;27787;44.594;11.046;2023-03-01T02:42:57;101360.34;;;4.94;72.49
42125;BME280;27787;44.594;11.046;2023-03-01T02:46:08;101361.16;;;5.14;71.86
42125;BME280;27787;44.594;11.046;2023-03-01T02:48:57;101358.19;;;5.27;71.13
42125;BME280;27787;44.594;11.046;2023-03-01T02:51:52;101357.41;;;5.30;70.69
42125;BME280;27787;44.594;11.046;2023-03-01T02:54:54;101344.09;;;5.24;70.71
42125;BME280;27787;44.594;11.046;2023-03-01T02:57:43;101338.03;;;5.25;71.34
42125;BME280;27787;44.594;11.046;2023-03-01T03:00:32;101336.50;;;5.31;71.40
42125;BME280;27787;44.594;11.046;2023-03-01T03:03:20;101336.03;;;5.42;71.14
42125;BME280;27787;44.594;11.046;2023-03-01T03:06:05;101330.94;;;5.46;70.87
42125;BME280;27787;44.594;11.046;2023-03-01T03:08:50;101335.53;;;5.52;70.35
42125;BME280;27787;44.594;11.046;2023-03-01T03:11:34;101326.56;;;5.45;70.09
42125;BME280;27787;44.594;11.046;2023-03-01T03:14:18;101338.53;;;5.39;70.13
42125;BME280;27787;44.594;11.046;2023-03-01T03:17:04;101333.72;;;5.27;70.40
42125;BME280;27787;44.594;11.046;2023-03-01T03:19:50;101328.03;;;5.15;71.54
42125;BME280;27787;44.594;11.046;2023-03-01T03:22:34;101329.75;;;5.14;71.93
42125;BME280;27787;44.594;11.046;2023-03-01T03:25:19;101327.31;;;5.19;71.95
42125;BME280;27787;44.594;11.046;2023-03-01T03:28:05;101329.91;;;5.19;71.51
42125;BME280;27787;44.594;11.046;2023-03-01T03:30:56;101331.38;;;5.11;72.66
42125;BME280;27787;44.594;11.046;2023-03-01T03:33:40;101328.28;;;5.21;71.67
42125;BME280;27787;44.594;11.046;2023-03-01T03:36:24;101322.91;;;5.18;71.65
42125;BME280;27787;44.594;11.046;2023-03-01T03:39:09;101318.63;;;5.20;71.89
42125;BME280;27787;44.594;11.046;2023-03-01T03:41:53;101311.78;;;5.23;71.54
42125;BME280;27787;44.594;11.046;2023-03-01T03:44:37;101301.66;;;5.32;71.15
42125;BME280;27787;44.594;11.046;2023-03-01T03:47:22;101302.63;;;5.35;70.63
42125;BME280;27787;44.594;11.046;2023-03-01T03:50:06;101296.59;;;5.37;70.95
42125;BME280;27787;44.594;11.046;2023-03-01T03:52:51;101292.19;;;5.36;70.87
42125;BME280;27787;44.594;11.046;2023-03-01T03:55:35;101295.53;;;5.32;71.22
42125;BME280;27787;44.594;11.046;2023-03-01T03:58:23;101296.03;;;5.22;71.64
42125;BME280;27787;44.594;11.046;2023-03-01T04:01:08;101301.88;;;5.15;71.76
42125;BME280;27787;44.594;11.046;2023-03-01T04:03:52;101292.13;;;5.11;72.47
42125;BME280;27787;44.594;11.046;2023-03-01T04:06:38;101296.56;;;5.13;72.79
42125;BME280;27787;44.594;11.046;2023-03-01T04:09:22;101290.66;;;5.19;71.37
42125;BME280;27787;44.594;11.046;2023-03-01T04:12:06;101281.16;;;5.21;72.10
42125;BME280;27787;44.594;11.046;2023-03-01T04:14:50;101287.56;;;5.29;71.67
42125;BME280;27787;44.594;11.046;2023-03-01T04:17:34;101290.44;;;5.35;71.04
42125;BME280;27787;44.594;11.046;2023-03-01T04:20:22;101285.88;;;5.31;71.46
42125;BME280;27787;44.594;11.046;2023-03-01T04:23:12;101294.63;;;5.31;71.54
42125;BME280;27787;44.594;11.046;2023-03-01T04:25:59;101292.59;;;5.23;71.99
42125;BME280;27787;44.594;11.046;2023-03-01T04:28:44;101298.66;;;5.22;72.21
42125;BME280;27787;44.594;11.046;2023-03-01T04:31:29;101291.75;;;5.24;72.37
42125;BME280;27787;44.594;11.046;2023-03-01T04:34:13;101287.63;;;5.30;72.16
42125;BME280;27787;44.594;11.046;2023-03-01T04:36:58;101287.84;;;5.37;72.02
42125;BME280;27787;44.594;11.046;2023-03-01T04:39:42;101288.81;;;5.39;71.43
42125;BME280;27787;44.594;11.046;2023-03-01T04:42:29;101288.75;;;5.37;71.60
42125;BME280;27787;44.594;11.046;2023-03-01T04:45:13;101286.97;;;5.36;71.84
42125;BME280;27787;44.594;11.046;2023-03-01T04:47:57;101288.69;;;5.36;71.56
42125;BME280;27787;44.594;11.046;2023-03-01T04:50:42;101291.91;;;5.28;71.51
42125;BME280;27787;44.594;11.046;2023-03-01T04:53:26;101290.81;;;5.22;72.55
42125;BME280;27787;44.594;11.046;2023-03-01T04:56:12;101286.50;;;5.24;72.87
42125;BME280;27787;44.594;11.046;2023-03-01T04:58:59;101285.47;;;5.20;72.06
42125;BME280;27787;44.594;11.046;2023-03-01T05:01:44;101290.03;;;5.24;72.34
42125;BME280;27787;44.594;11.046;2023-03-01T05:04:28;101294.63;;;5.31;71.80
42125;BME280;27787;44.594;11.046;2023-03-01T05:07:14;101299.22;;;5.37;71.54
42125;BME280;27787;44.594;11.046;2023-03-01T05:10:03;101298.28;;;5.35;71.46
42125;BME280;27787;44.594;11.046;2023-03-01T05:12:47;101293.88;;;5.34;71.84
42125;BME280;27787;44.594;11.046;2023-03-01T05:15:32;101300.59;;;5.27;71.79
42125;BME280;27787;44.594;11.046;2023-03-01T05:18:16;101286.50;;;5.24;72.35
42125;BME280;27787;44.594;11.046;2023-03-01T05:21:10;101285.84;;;5.29;71.89
42125;BME280;27787;44.594;11.046;2023-03-01T05:23:54;101292.75;;;5.27;72.22
42125;BME280;27787;44.594;11.046;2023-03-01T05:26:39;101291.81;;;5.25;71.80
42125;BME280;27787;44.594;11.046;2023-03-01T05:29:25;101300.25;;;5.18;71.30
42125;BME280;27787;44.594;11.046;2023-03-01T05:32:10;101294.75;;;5.11;71.73
42125;BME280;27787;44.594;11.046;2023-03-01T05:34:59;101302.06;;;4.97;72.84
42125;BME280;27787;44.594;11.046;2023-03-01T05:37:45;101300.03;;;4.90;74.32
42125;BME280;27787;44.594;11.046;2023-03-01T05:40:29;101292.59;;;4.78;76.36
42125;BME280;27787;44.594;11.046;2023-03-01T05:43:15;101294.16;;;4.73;76.51
42125;BME280;27787;44.594;11.046;2023-03-01T05:46:00;101285.16;;;4.66;77.28
42125;BME280;27787;44.594;11.046;2023-03-01T05:48:44;101294.72;;;4.66;78.84
42125;BME280;27787;44.594;11.046;2023-03-01T05:51:28;101291.16;;;4.64;79.68
42125;BME280;27787;44.594;11.046;2023-03-01T05:54:13;101288.53;;;4.64;80.00
42125;BME280;27787;44.594;11.046;2023-03-01T05:56:56;101277.25;;;4.65;79.34
42125;BME280;27787;44.594;11.046;2023-03-01T05:59:40;101277.25;;;4.65;80.78
42125;BME280;27787;44.594;11.046;2023-03-01T06:02:24;101279.75;;;4.62;80.94
42125;BME280;27787;44.594;11.046;2023-03-01T06:05:10;101287.97;;;4.71;81.54
42125;BME280;27787;44.594;11.046;2023-03-01T06:07:58;101279.28;;;4.72;81.38
42125;BME280;27787;44.594;11.046;2023-03-01T06:10:43;101272.13;;;4.68;82.66
42125;BME280;27787;44.594;11.046;2023-03-01T06:13:27;101280.59;;;4.61;83.04
42125;BME280;27787;44.594;11.046;2023-03-01T06:16:12;101293.66;;;4.61;83.81
42125;BME280;27787;44.594;11.046;2023-03-01T06:18:57;101288.88;;;4.71;84.50
42125;BME280;27787;44.594;11.046;2023-03-01T06:21:41;101287.47;;;4.81;84.08
42125;BME280;27787;44.594;11.046;2023-03-01T06:24:25;101292.06;;;4.87;83.14
42125;BME280;27787;44.594;11.046;2023-03-01T06:27:09;101286.91;;;4.88;83.46
42125;BME280;27787;44.594;11.046;2023-03-01T06:29:53;101287.00;;;4.91;83.74
42125;BME280;27787;44.594;11.046;2023-03-01T06:32:38;101293.13;;;4.92;83.64
42125;BME280;27787;44.594;11.046;2023-03-01T06:35:26;101292.97;;;4.87;84.40
42125;BME280;27787;44.594;11.046;2023-03-01T06:38:13;101293.00;;;4.89;84.69
42125;BME280;27787;44.594;11.046;2023-03-01T06:40:59;101304.25;;;4.86;85.16
42125;BME280;27787;44.594;11.046;2023-03-01T06:43:43;101293.13;;;4.92;86.07
42125;BME280;27787;44.594;11.046;2023-03-01T06:46:27;101291.66;;;4.98;85.44
42125;BME280;27787;44.594;11.046;2023-03-01T06:49:11;101301.16;;;4.96;85.26
42125;BME280;27787;44.594;11.046;2023-03-01T06:51:55;101305.50;;;4.96;86.02
42125;BME280;27787;44.594;11.046;2023-03-01T06:54:39;101312.47;;;4.95;86.20
42125;BME280;27787;44.594;11.046;2023-03-01T06:57:23;101304.63;;;4.95;86.03
42125;BME280;27787;44.594;11.046;2023-03-01T07:00:08;101304.63;;;4.95;86.00
42125;BME280;27787;44.594;11.046;2023-03-01T07:02:54;101302.94;;;4.97;86.10
42125;BME280;27787;44.594;11.046;2023-03-01T07:05:39;101300.97;;;4.92;86.65
42125;BME280;27787;44.594;11.046;2023-03-01T07:08:23;101299.91;;;4.87;87.46
42125;BME280;27787;44.594;11.046;2023-03-01T07:11:07;101300.75;;;4.86;88.04
42125;BME280;27787;44.594;11.046;2023-03-01T07:13:51;101292.00;;;4.85;88.23
42125;BME280;27787;44.594;11.046;2023-03-01T07:16:36;101298.81;;;4.82;88.30
42125;BME280;27787;44.594;11.046;2023-03-01T07:19:21;101297.94;;;4.81;88.19
42125;BME280;27787;44.594;11.046;2023-03-01T07:22:05;101289.09;;;4.78;87.71
42125;BME280;27787;44.594;11.046;2023-03-01T07:24:52;101288.13;;;4.76;88.45
42125;BME280;27787;44.594;11.046;2023-03-01T07:27:36;101288.03;;;4.72;88.75
42125;BME280;27787;44.594;11.046;2023-03-01T07:30:45;101284.09;;;4.61;89.00
42125;BME280;27787;44.594;11.046;2023-03-01T07:33:30;101286.94;;;4.67;89.06
42125;BME280;27787;44.594;11.046;2023-03-01T07:36:14;101286.94;;;4.67;89.08
42125;BME280;27787;44.594;11.046;2023-03-01T07:38:58;101289.63;;;4.69;90.00
42125;BME280;27787;44.594;11.046;2023-03-01T07:41:43;101273.84;;;4.67;90.39
42125;BME280;27787;44.594;11.046;2023-03-01T07:44:26;101287.03;;;4.69;89.66
42125;BME280;27787;44.594;11.046;2023-03-01T07:47:12;101283.31;;;4.64;89.16
42125;BME280;27787;44.594;11.046;2023-03-01T07:49:56;101290.94;;;4.58;89.65
42125;BME280;27787;44.594;11.046;2023-03-01T07:52:40;101283.91;;;4.57;90.33
42125;BME280;27787;44.594;11.046;2023-03-01T07:55:24;101284.56;;;4.51;90.44
42125;BME280;27787;44.594;11.046;2023-03-01T07:58:08;101274.69;;;4.44;91.01
42125;BME280;27787;44.594;11.046;2023-03-01T08:00:52;101285.84;;;4.40;91.70
42125;BME280;27787;44.594;11.046;2023-03-01T08:03:37;101283.88;;;4.34;92.04
42125;BME280;27787;44.594;11.046;2023-03-01T08:06:21;101277.69;;;4.32;92.10
42125;BME280;27787;44.594;11.046;2023-03-01T08:09:06;101280.25;;;4.31;92.54
42125;BME280;27787;44.594;11.046;2023-03-01T08:11:52;101276.88;;;4.33;92.52
42125;BME280;27787;44.594;11.046;2023-03-01T08:15:02;101281.72;;;4.24;93.07
42125;BME280;27787;44.594;11.046;2023-03-01T08:17:48;101277.31;;;4.23;93.65
42125;BME280;27787;44.594;11.046;2023-03-01T08:20:33;101275.53;;;4.22;93.72
42125;BME280;27787;44.594;11.046;2023-03-01T08:23:17;101280.66;;;4.19;94.39
42125;BME280;27787;44.594;11.046;2023-03-01T08:26:08;101270.31;;;4.22;95.11
42125;BME280;27787;44.594;11.046;2023-03-01T08:28:53;101269.72;;;4.29;94.81
42125;BME280;27787;44.594;11.046;2023-03-01T08:31:39;101273.31;;;4.31;94.79
42125;BME280;27787;44.594;11.046;2023-03-01T08:34:26;101274.94;;;4.29;94.72
42125;BME280;27787;44.594;11.046;2023-03-01T08:37:10;101262.53;;;4.24;94.86
42125;BME280;27787;44.594;11.046;2023-03-01T08:39:54;101280.50;;;4.37;94.99
42125;BME280;27787;44.594;11.046;2023-03-01T08:42:39;101285.91;;;4.41;94.91
42125;BME280;27787;44.594;11.046;2023-03-01T08:45:23;101279.84;;;4.42;94.30
42125;BME280;27787;44.594;11.046;2023-03-01T08:48:07;101279.84;;;4.42;95.50
42125;BME280;27787;44.594;11.046;2023-03-01T08:50:51;101285.22;;;4.46;95.43
42125;BME280;27787;44.594;11.046;2023-03-01T08:53:35;101279.16;;;4.47;95.50
42125;BME280;27787;44.594;11.046;2023-03-01T08:56:20;101275.66;;;4.46;97.06
42125;BME280;27787;44.594;11.046;2023-03-01T08:59:04;101280.81;;;4.44;97.34
42125;BME280;27787;44.594;11.046;2023-03-01T09:01:51;101265.31;;;4.49;96.79
42125;BME280;27787;44.594;11.046;2023-03-01T09:04:35;101254.38;;;4.59;96.34
42125;BME280;27787;44.594;11.046;2023-03-01T09:07:19;101257.00;;;4.59;95.99
42125;BME280;27787;44.594;11.046;2023-03-01T09:10:03;101250.22;;;4.64;95.76
42125;BME280;27787;44.594;11.046;2023-03-01T09:12:47;101251.31;;;4.69;95.78
42125;BME280;27787;44.594;11.046;2023-03-01T09:15:31;101247.84;;;4.70;94.87
42125;BME280;27787;44.594;11.046;2023-03-01T09:18:16;101242.69;;;4.72;95.02
42125;BME280;27787;44.594;11.046;2023-03-01T09:21:03;101232.34;;;4.75;95.78
42125;BME280;27787;44.594;11.046;2023-03-01T09:23:51;101233.53;;;4.83;94.58
42125;BME280;27787;44.594;11.046;2023-03-01T09:26:34;101225.00;;;4.89;94.57
42125;BME280;27787;44.594;11.046;2023-03-01T09:29:19;101226.91;;;4.93;94.49
42125;BME280;27787;44.594;11.046;2023-03-01T09:32:03;101223.44;;;4.94;93.89
42125;BME280;27787;44.594;11.046;2023-03-01T09:34:47;101210.31;;;4.92;94.18
42125;BME280;27787;44.594;11.046;2023-03-01T09:37:51;101204.09;;;4.89;94.26
42125;BME280;27787;44.594;11.046;2023-03-01T09:40:35;101205.75;;;4.87;94.23
42125;BME280;27787;44.594;11.046;2023-03-01T09:43:33;101200.69;;;4.91;93.91
42125;BME280;27787;44.594;11.046;2023-03-01T09:46:23;101191.94;;;4.91;93.67
42125;BME280;27787;44.594;11.046;2023-03-01T09:49:19;101195.56;;;4.94;93.30
42125;BME280;27787;44.594;11.046;2023-03-01T09:52:30;101185.69;;;5.10;92.01
42125;BME280;27787;44.594;11.046;2023-03-01T09:55:58;101189.63;;;4.98;92.48
42125;BME280;27787;44.594;11.046;2023-03-01T09:58:59;101184.34;;;4.97;92.75
42125;BME280;27787;44.594;11.046;2023-03-01T10:04:50;101181.94;;;5.03;93.23
42125;BME280;27787;44.594;11.046;2023-03-01T10:10:48;101182.81;;;5.03;93.51
42125;BME280;27787;44.594;11.046;2023-03-01T10:13:46;101172.31;;;5.02;93.34
42125;BME280;27787;44.594;11.046;2023-03-01T10:16:55;101171.56;;;5.06;92.08
42125;BME280;27787;44.594;11.046;2023-03-01T10:19:43;101179.75;;;5.15;91.30
42125;BME280;27787;44.594;11.046;2023-03-01T10:22:29;101172.47;;;5.07;91.38
42125;BME280;27787;44.594;11.046;2023-03-01T10:25:19;101177.69;;;5.07;91.75
42125;BME280;27787;44.594;11.046;2023-03-01T10:31:00;101162.09;;;5.08;93.26
42125;BME280;27787;44.594;11.046;2023-03-01T10:33:44;101153.31;;;5.08;93.42
42125;BME280;27787;44.594;11.046;2023-03-01T10:36:32;101153.00;;;4.98;93.53
42125;BME280;27787;44.594;11.046;2023-03-01T10:39:19;101152.75;;;4.92;93.94
42125;BME280;27787;44.594;11.046;2023-03-01T10:42:07;101159.56;;;4.87;94.20
42125;BME280;27787;44.594;11.046;2023-03-01T10:53:47;101165.91;;;4.94;94.48
42125;BME280;27787;44.594;11.046;2023-03-01T10:56:46;101172.94;;;4.95;95.90
42125;BME280;27787;44.594;11.046;2023-03-01T11:02:29;101183.59;;;5.01;96.48
42125;BME280;27787;44.594;11.046;2023-03-01T11:07:59;101197.09;;;5.12;95.97
42125;BME280;27787;44.594;11.046;2023-03-01T11:10:44;101203.25;;;5.14;96.55
42125;BME280;27787;44.594;11.046;2023-03-01T11:13:27;101206.88;;;5.17;96.72
42125;BME280;27787;44.594;11.046;2023-03-01T11:16:13;101197.94;;;5.11;95.85
42125;BME280;27787;44.594;11.046;2023-03-01T11:22:30;101195.16;;;5.08;92.44
42125;BME280;27787;44.594;11.046;2023-03-01T11:25:08;101194.84;;;4.98;93.22
42125;BME280;27787;44.594;11.046;2023-03-01T11:27:59;101192.94;;;4.94;93.71
42125;BME280;27787;44.594;11.046;2023-03-01T11:30:55;101199.53;;;4.83;93.09
42125;BME280;27787;44.594;11.046;2023-03-01T11:36:52;101194.94;;;4.78;93.02
42125;BME280;27787;44.594;11.046;2023-03-01T11:39:43;101193.06;;;4.73;92.67
42125;BME280;27787;44.594;11.046;2023-03-01T11:45:43;101184.31;;;4.51;92.54
42125;BME280;27787;44.594;11.046;2023-03-01T11:57:53;101184.75;;;4.61;93.99
42125;BME280;27787;44.594;11.046;2023-03-01T12:01:02;101183.69;;;4.56;94.41
42125;BME280;27787;44.594;11.046;2023-03-01T12:04:27;101185.69;;;4.63;95.02
42125;BME280;27787;44.594;11.046;2023-03-01T12:07:50;101180.47;;;4.63;93.99
42125;BME280;27787;44.594;11.046;2023-03-01T12:10:41;101185.47;;;4.57;92.88
42125;BME280;27787;44.594;11.046;2023-03-01T12:13:50;101177.31;;;4.50;93.86
42125;BME280;27787;44.594;11.046;2023-03-01T12:23:34;101171.50;;;4.34;94.80
42125;BME280;27787;44.594;11.046;2023-03-01T12:26:34;101155.56;;;4.28;94.79
42125;BME280;27787;44.594;11.046;2023-03-01T12:32:20;101151.78;;;4.20;94.92
42125;BME280;27787;44.594;11.046;2023-03-01T12:38:40;101146.19;;;4.11;95.75
42125;BME280;27787;44.594;11.046;2023-03-01T12:50:42;101118.50;;;3.71;98.80
42125;BME280;27787;44.594;11.046;2023-03-01T12:53:31;101134.66;;;3.63;98.68
42125;BME280;27787;44.594;11.046;2023-03-01T12:56:21;101153.75;;;3.62;99.42
42125;BME280;27787;44.594;11.046;2023-03-01T12:59:21;101158.53;;;3.72;99.49
42125;BME280;27787;44.594;11.046;2023-03-01T13:02:23;101156.81;;;3.72;99.20
42125;BME280;27787;44.594;11.046;2023-03-01T13:08:25;101147.94;;;3.90;97.15
42125;BME280;27787;44.594;11.046;2023-03-01T13:11:19;101133.69;;;3.81;97.23
42125;BME280;27787;44.594;11.046;2023-03-01T13:17:32;101155.66;;;3.45;97.42
42125;BME280;27787;44.594;11.046;2023-03-01T13:20:19;101159.50;;;3.53;97.28
42125;BME280;27787;44.594;11.046;2023-03-01T13:29:26;101159.00;;;3.41;97.37
42125;BME280;27787;44.594;11.046;2023-03-01T13:32:30;101159.72;;;3.38;97.53
42125;BME280;27787;44.594;11.046;2023-03-01T13:50:00;101151.94;;;3.19;97.29
42125;BME280;27787;44.594;11.046;2023-03-01T13:55:51;101152.41;;;3.30;96.64
42125;BME280;27787;44.594;11.046;2023-03-01T14:01:55;101138.97;;;3.20;96.08
42125;BME280;27787;44.594;11.046;2023-03-01T14:04:40;101139.81;;;3.19;96.04
42125;BME280;27787;44.594;11.046;2023-03-01T14:10:14;101140.16;;;3.08;96.91
42125;BME280;27787;44.594;11.046;2023-03-01T14:16:40;101147.22;;;3.10;97.49
42125;BME280;27787;44.594;11.046;2023-03-01T14:19:27;101133.50;;;3.14;97.62
42125;BME280;27787;44.594;11.046;2023-03-01T14:22:23;101143.47;;;3.24;96.72
42125;BME280;27787;44.594;11.046;2023-03-01T14:25:35;101141.47;;;3.17;96.04
42125;BME280;27787;44.594;11.046;2023-03-01T14:28:23;101138.97;;;3.20;96.49
42125;BME280;27787;44.594;11.046;2023-03-01T14:31:42;101136.13;;;3.14;96.65
42125;BME280;27787;44.594;11.046;2023-03-01T14:34:26;101138.31;;;3.05;97.36
42125;BME280;27787;44.594;11.046;2023-03-01T14:37:22;101147.84;;;3.05;97.90
42125;BME280;27787;44.594;11.046;2023-03-01T14:43:11;101133.34;;;3.11;97.65
42125;BME280;27787;44.594;11.046;2023-03-01T14:45:56;101129.91;;;3.12;96.98
42125;BME280;27787;44.594;11.046;2023-03-01T14:48:41;101129.03;;;3.12;97.48
42125;BME280;27787;44.594;11.046;2023-03-01T14:51:25;101134.88;;;3.06;98.14
42125;BME280;27787;44.594;11.046;2023-03-01T14:54:28;101135.34;;;2.97;98.31
42125;BME280;27787;44.594;11.046;2023-03-01T14:57:25;101131.59;;;2.91;99.10
42125;BME280;27787;44.594;11.046;2023-03-01T15:00:19;101122.91;;;2.90;99.43
42125;BME280;27787;44.594;11.046;2023-03-01T15:03:11;101121.13;;;2.89;99.84
42125;BME280;27787;44.594;11.046;2023-03-01T15:05:57;101118.56;;;2.91;99.65
42125;BME280;27787;44.594;11.046;2023-03-01T15:08:44;101121.50;;;2.99;99.82
42125;BME280;27787;44.594;11.046;2023-03-01T15:11:31;101119.28;;;3.08;98.76
42125;BME280;27787;44.594;11.046;2023-03-01T15:14:39;101126.16;;;3.06;99.21
42125;BME280;27787;44.594;11.046;2023-03-01T15:17:32;101117.03;;;2.96;99.65
42125;BME280;27787;44.594;11.046;2023-03-01T15:20:18;101123.97;;;2.95;100.00
42125;BME280;27787;44.594;11.046;2023-03-01T15:23:05;101123.78;;;2.91;100.00
42125;BME280;27787;44.594;11.046;2023-03-01T15:25:52;101134.91;;;2.87;100.00
42125;BME280;27787;44.594;11.046;2023-03-01T15:28:42;101131.66;;;2.92;100.00
42125;BME280;27787;44.594;11.046;2023-03-01T15:31:36;101131.38;;;3.06;100.00
42125;BME280;27787;44.594;11.046;2023-03-01T15:34:25;101133.44;;;3.13;99.86
42125;BME280;27787;44.594;11.046;2023-03-01T15:40:25;101132.63;;;3.14;99.41
42125;BME280;27787;44.594;11.046;2023-03-01T15:43:45;101128.28;;;3.14;99.49
42125;BME280;27787;44.594;11.046;2023-03-01T15:46:34;101131.09;;;3.19;99.29
42125;BME280;27787;44.594;11.046;2023-03-01T15:49:41;101126.13;;;3.25;99.12
42125;BME280;27787;44.594;11.046;2023-03-01T15:52:28;101131.44;;;3.27;99.40
42125;BME280;27787;44.594;11.046;2023-03-01T15:55:23;101135.53;;;3.21;99.81
42125;BME280;27787;44.594;11.046;2023-03-01T15:58:17;101127.78;;;3.23;100.00
42125;BME280;27787;44.594;11.046;2023-03-01T16:01:02;101136.69;;;3.28;100.00
42125;BME280;27787;44.594;11.046;2023-03-01T16:03:46;101126.38;;;3.31;100.00
42125;BME280;27787;44.594;11.046;2023-03-01T16:06:30;101126.28;;;3.28;100.00
42125;BME280;27787;44.594;11.046;2023-03-01T16:09:15;101121.41;;;3.16;100.00
42125;BME280;27787;44.594;11.046;2023-03-01T16:11:59;101124.97;;;3.18;100.00
42125;BME280;27787;44.594;11.046;2023-03-01T16:14:43;101125.53;;;3.11;100.00
42125;BME280;27787;44.594;11.046;2023-03-01T16:17:27;101124.78;;;3.14;100.00
42125;BME280;27787;44.594;11.046;2023-03-01T16:20:12;101130.75;;;3.11;100.00
42125;BME280;27787;44.594;11.046;2023-03-01T16:23:01;101126.22;;;3.07;100.00
42125;BME280;27787;44.594;11.046;2023-03-01T16:25:46;101126.94;;;3.03;100.00
42125;BME280;27787;44.594;11.046;2023-03-01T16:28:29;101130.44;;;3.04;100.00
42125;BME280;27787;44.594;11.046;2023-03-01T16:31:18;101129.59;;;3.05;100.00
42125;BME280;27787;44.594;11.046;2023-03-01T16:34:03;101119.88;;;3.01;100.00
42125;BME280;27787;44.594;11.046;2023-03-01T16:36:47;101120.88;;;3.04;100.00